Normand Subsea — 2CQP8 — position and weather

sailwx.info

Track history (hours):
 
Tides and Currents Weather Stations Pressure Air Temp Water Temp Dewpoint Dewpoint Depression Visibility Wind Speed Wind Dir Waves Ship Positions

Normand Subsea

Last reported at 2015-Aug-05 09:33 UTC. Time now 2015-Aug-05 10:28 UTC.
Position N 53°05' E 002°08'.

Length 113 m; draft 7.8 m.

Type: Other ship. MMSI: 235074949.

Date/timePositionNaut miles runAvg speedWind from/ knotsBaromVisibWave heightAir tempDewpointWater temp
2015-Aug-05 09:33N 53°05' E 002°08'0 0.1
2015-Aug-05 08:33N 53°05' E 002°08'0 0.0
2015-Aug-05 07:33N 53°05' E 002°08'0 0.2
2015-Aug-05 06:33N 53°05' E 002°08'2 2.2
2015-Aug-05 05:33N 53°04' E 002°10'3 3.1
2015-Aug-05 04:32N 53°01' E 002°11'0 0.3
2015-Aug-05 03:33N 53°01' E 002°11'0 0.0
2015-Aug-05 02:33N 53°01' E 002°11'0 0.0
2015-Aug-05 01:33N 53°01' E 002°11'0 0.1
2015-Aug-05 00:33N 53°01' E 002°11'0 0.0
2015-Aug-04 23:33N 53°01' E 002°11'0 0.0
2015-Aug-04 22:33N 53°01' E 002°11'0 0.1
2015-Aug-04 21:33N 53°01' E 002°11'0 0.0
2015-Aug-04 20:32N 53°01' E 002°11'0 0.0
2015-Aug-04 19:32N 53°01' E 002°11'0 0.0
2015-Aug-04 18:31N 53°01' E 002°11'0 0.3
2015-Aug-04 17:33N 53°01' E 002°11'0 0.2
2015-Aug-04 16:33N 53°01' E 002°11'1 0.7
2015-Aug-04 15:32N 53°01' E 002°11'4 4.5
2015-Aug-04 14:33N 53°05' E 002°08'0 0.0
2015-Aug-04 13:33N 53°05' E 002°08'0 0.0
2015-Aug-04 12:33N 53°05' E 002°08'0 0.0
2015-Aug-04 11:33N 53°05' E 002°08'0 0.1
2015-Aug-04 10:33N 53°05' E 002°08'0 0.0
2015-Aug-04 09:33N 53°05' E 002°08'0 0.1
2015-Aug-04 08:32N 53°05' E 002°08'0 0.0
2015-Aug-04 07:33N 53°05' E 002°08'0 0.0
2015-Aug-04 06:33N 53°05' E 002°08'0 0.1
2015-Aug-04 05:11N 53°05' E 002°08'0 0.0
2015-Aug-04 04:33N 53°05' E 002°08'0 0.0
2015-Aug-04 03:33N 53°05' E 002°08'0 0.1
2015-Aug-04 02:33N 53°05' E 002°08'0 0.0
2015-Aug-04 01:33N 53°05' E 002°08'0 0.0
2015-Aug-04 00:33N 53°05' E 002°08'0 0.1
2015-Aug-03 23:33N 53°05' E 002°08'0 0.0
2015-Aug-03 22:33N 53°05' E 002°08'0 0.0
2015-Aug-03 21:33N 53°05' E 002°08'3 2.8
2015-Aug-03 20:33N 53°04' E 002°11'2 0.4
2015-Aug-03 15:32N 53°02' E 002°11'5 5.0
2015-Aug-03 14:33N 53°05' E 002°06'2 1.7
2015-Aug-03 13:34N 53°07' E 002°04'0 0.0
2015-Aug-03 12:33N 53°06' E 002°04'0 0.0
2015-Aug-03 11:33N 53°07' E 002°04'0 0.0
2015-Aug-03 10:32N 53°07' E 002°04'0 0.1
2015-Aug-03 09:33N 53°06' E 002°04'0 0.0
2015-Aug-03 08:33N 53°06' E 002°04'0 0.1
2015-Aug-03 07:33N 53°06' E 002°04'0 0.0
2015-Aug-03 06:33N 53°06' E 002°04'0 0.0
2015-Aug-03 05:33N 53°06' E 002°04'0 0.1
2015-Aug-03 04:33N 53°06' E 002°04'0 0.0
2015-Aug-03 03:33N 53°06' E 002°04'0 0.0
2015-Aug-03 02:33N 53°06' E 002°04'0 0.1
2015-Aug-03 01:33N 53°06' E 002°04'0 0.0
2015-Aug-02 23:33N 53°06' E 002°04'0 0.0
2015-Aug-02 22:33N 53°06' E 002°04'0 0.0
2015-Aug-02 21:33N 53°06' E 002°04'0 0.0
2015-Aug-02 20:33N 53°06' E 002°04'0 0.0
2015-Aug-02 19:33N 53°06' E 002°04'0 0.0
2015-Aug-02 18:33N 53°06' E 002°04'0 0.1
2015-Aug-02 17:33N 53°06' E 002°04'0 0.2
2015-Aug-02 16:33N 53°06' E 002°04'0 0.0
2015-Aug-02 15:33N 53°06' E 002°04'0 0.0
2015-Aug-02 14:33N 53°06' E 002°04'0 0.0
2015-Aug-02 13:33N 53°06' E 002°04'3 2.9
2015-Aug-02 12:33N 53°05' E 002°08'1 1.4
2015-Aug-02 11:33N 53°04' E 002°10'1 0.9
2015-Aug-02 10:33N 53°04' E 002°11'0 0.4
2015-Aug-02 09:33N 53°03' E 002°11'0 0.1
2015-Aug-02 08:33N 53°03' E 002°11'0 0.0
2015-Aug-02 07:33N 53°03' E 002°11'0 0.0
2015-Aug-02 06:33N 53°03' E 002°11'0 0.0
2015-Aug-02 05:33N 53°03' E 002°11'0 0.1
2015-Aug-02 04:33N 53°03' E 002°11'0 0.0
2015-Aug-02 01:33N 53°03' E 002°11'0 0.0
2015-Aug-02 00:33N 53°03' E 002°11'0 0.0
2015-Aug-01 23:32N 53°03' E 002°11'0 0.0
2015-Aug-01 21:28N 53°03' E 002°11'0 0.0
2015-Aug-01 20:33N 53°03' E 002°11'0 0.0
2015-Aug-01 19:33N 53°03' E 002°11'0 0.0
2015-Aug-01 18:33N 53°03' E 002°11'0 0.0
2015-Aug-01 17:33N 53°03' E 002°11'0 0.1
2015-Aug-01 16:24N 53°03' E 002°11'0 0.0
2015-Aug-01 15:33N 53°03' E 002°11'0 0.0
2015-Aug-01 14:33N 53°03' E 002°11'0 0.0
2015-Aug-01 13:33N 53°03' E 002°11'0 0.0
2015-Aug-01 09:33N 53°03' E 002°11'0 0.0
2015-Aug-01 08:33N 53°03' E 002°11'0 0.1
2015-Aug-01 04:04N 53°03' E 002°11'0 0.0
2015-Aug-01 03:33N 53°03' E 002°11'0 0.0
2015-Aug-01 02:27N 53°03' E 002°11'0 0.0
2015-Aug-01 01:33N 53°03' E 002°11'0 0.0
2015-Jul-31 20:33N 53°03' E 002°11'0 0.0
2015-Jul-31 19:27N 53°03' E 002°11'0 0.0
2015-Jul-31 03:29N 53°03' E 002°11'0 0.0
2015-Jul-30 18:15N 53°03' E 002°11'0 0.0
2015-Jul-30 08:11N 53°03' E 002°11'0 0.2
2015-Jul-30 07:31N 53°03' E 002°11'0 0.0
2015-Jul-30 06:33N 53°03' E 002°11'0 0.0
2015-Jul-30 05:33N 53°03' E 002°11'0 0.1
2015-Jul-30 00:33N 53°03' E 002°11'2 1.7
2015-Jul-29 23:33N 53°01' E 002°13'23 6.9
2015-Jul-29 20:11N 52°38' E 002°07'5 7.5
2015-Jul-29 19:33N 52°36' E 002°01'8 7.7
2015-Jul-29 18:34N 52°33' E 001°49'3 3.4
2015-Jul-29 17:33N 52°35' E 001°44'0 0.0
2015-Jul-29 16:33N 52°35' E 001°44'0 0.0
2015-Jul-29 15:33N 52°35' E 001°44'0 0.0
2015-Jul-29 14:33N 52°35' E 001°44'0 0.0
2015-Jul-29 13:33N 52°35' E 001°44'0 0.0
2015-Jul-29 12:33N 52°35' E 001°44'0 0.0
2015-Jul-29 11:30N 52°35' E 001°44'0 0.0
2015-Jul-29 10:33N 52°35' E 001°44'0 0.0
2015-Jul-29 09:33N 52°35' E 001°44'0 0.0
2015-Jul-29 08:33N 52°35' E 001°44'0 0.0
2015-Jul-29 07:33N 52°35' E 001°44'0 0.1
2015-Jul-29 06:33N 52°35' E 001°44'4 4.0
2015-Jul-29 05:33N 52°33' E 001°50'7 7.2
2015-Jul-29 04:33N 52°36' E 002°00'28 1.6
2015-Jul-28 10:32N 53°03' E 002°10'1 1.5
2015-Jul-28 09:33N 53°05' E 002°11'0 0.0
2015-Jul-28 08:33N 53°05' E 002°11'0 0.0
2015-Jul-28 07:33N 53°05' E 002°11'0 0.0
2015-Jul-28 06:32N 53°05' E 002°11'0 0.0
2015-Jul-28 05:33N 53°05' E 002°11'0 0.0
2015-Jul-28 04:33N 53°05' E 002°11'0 0.1
2015-Jul-28 03:33N 53°05' E 002°11'0 0.0
2015-Jul-28 02:33N 53°05' E 002°11'0 0.0
2015-Jul-28 01:33N 53°05' E 002°11'0 0.0
2015-Jul-28 00:33N 53°05' E 002°11'0 0.0
2015-Jul-27 23:33N 53°05' E 002°11'0 0.0
2015-Jul-27 22:33N 53°05' E 002°11'0 0.0
2015-Jul-27 21:33N 53°05' E 002°11'0 0.0
2015-Jul-27 20:33N 53°05' E 002°11'0 0.0
2015-Jul-27 19:33N 53°05' E 002°11'0 0.0
2015-Jul-27 18:33N 53°05' E 002°11'0 0.0
2015-Jul-27 17:33N 53°05' E 002°11'0 0.0
2015-Jul-27 16:33N 53°05' E 002°11'0 0.1
2015-Jul-27 15:33N 53°05' E 002°11'0 0.1
2015-Jul-27 14:33N 53°05' E 002°11'0 0.0
2015-Jul-27 13:33N 53°05' E 002°11'0 0.0
2015-Jul-27 12:33N 53°05' E 002°11'0 0.0
2015-Jul-27 11:33N 53°05' E 002°11'0 0.0
2015-Jul-27 10:33N 53°05' E 002°11'0 0.0
2015-Jul-27 09:21N 53°05' E 002°11'0 0.0
2015-Jul-27 08:33N 53°05' E 002°11'0 0.0
2015-Jul-27 07:33N 53°05' E 002°11'0 0.0
2015-Jul-27 06:33N 53°05' E 002°11'0 0.0
2015-Jul-27 05:33N 53°05' E 002°11'0 0.0
2015-Jul-27 04:33N 53°05' E 002°11'0 0.0
2015-Jul-27 03:33N 53°05' E 002°11'0 0.0
2015-Jul-27 02:33N 53°05' E 002°11'0 0.0
2015-Jul-27 01:33N 53°05' E 002°11'0 0.0
2015-Jul-27 00:33N 53°05' E 002°11'0 0.0
2015-Jul-26 23:31N 53°05' E 002°11'0 0.0
2015-Jul-26 20:22N 53°05' E 002°11'0 0.0
2015-Jul-26 19:32N 53°05' E 002°11'0 0.0
2015-Jul-26 18:31N 53°05' E 002°11'0 0.0
2015-Jul-26 17:31N 53°05' E 002°11'0 0.0
2015-Jul-26 16:33N 53°05' E 002°11'0 0.0
2015-Jul-26 15:33N 53°05' E 002°11'0 0.0
2015-Jul-26 14:33N 53°05' E 002°11'0 0.0
2015-Jul-26 13:33N 53°05' E 002°11'0 0.0
2015-Jul-26 12:33N 53°05' E 002°11'0 0.0
2015-Jul-26 11:33N 53°05' E 002°11'0 0.0
2015-Jul-26 10:33N 53°05' E 002°11'  
Track history (hours):
 
Tides and Currents Weather Stations Pressure Air Temp Water Temp Dewpoint Dewpoint Depression Visibility Wind Speed Wind Dir Waves Ship Positions

Normand Subsea

Last reported at 2015-Aug-05 09:33 UTC. Time now 2015-Aug-05 10:28 UTC.
Position N 53°05' E 002°08'.

Length 113 m; draft 7.8 m.

Type: Other ship. MMSI: 235074949.

Date/timePositionNaut miles runAvg speedWind from/ knotsBaromVisibWave heightAir tempDewpointWater temp
2015-Aug-05 09:33N 53°05' E 002°08'0 0.1
2015-Aug-05 08:33N 53°05' E 002°08'0 0.0
2015-Aug-05 07:33N 53°05' E 002°08'0 0.2
2015-Aug-05 06:33N 53°05' E 002°08'2 2.2
2015-Aug-05 05:33N 53°04' E 002°10'3 3.1
2015-Aug-05 04:32N 53°01' E 002°11'0 0.3
2015-Aug-05 03:33N 53°01' E 002°11'0 0.0
2015-Aug-05 02:33N 53°01' E 002°11'0 0.0
2015-Aug-05 01:33N 53°01' E 002°11'0 0.1
2015-Aug-05 00:33N 53°01' E 002°11'0 0.0
2015-Aug-04 23:33N 53°01' E 002°11'0 0.0
2015-Aug-04 22:33N 53°01' E 002°11'0 0.1
2015-Aug-04 21:33N 53°01' E 002°11'0 0.0
2015-Aug-04 20:32N 53°01' E 002°11'0 0.0
2015-Aug-04 19:32N 53°01' E 002°11'0 0.0
2015-Aug-04 18:31N 53°01' E 002°11'0 0.3
2015-Aug-04 17:33N 53°01' E 002°11'0 0.2
2015-Aug-04 16:33N 53°01' E 002°11'1 0.7
2015-Aug-04 15:32N 53°01' E 002°11'4 4.5
2015-Aug-04 14:33N 53°05' E 002°08'0 0.0
2015-Aug-04 13:33N 53°05' E 002°08'0 0.0
2015-Aug-04 12:33N 53°05' E 002°08'0 0.0
2015-Aug-04 11:33N 53°05' E 002°08'0 0.1
2015-Aug-04 10:33N 53°05' E 002°08'0 0.0
2015-Aug-04 09:33N 53°05' E 002°08'0 0.1
2015-Aug-04 08:32N 53°05' E 002°08'0 0.0
2015-Aug-04 07:33N 53°05' E 002°08'0 0.0
2015-Aug-04 06:33N 53°05' E 002°08'0 0.1
2015-Aug-04 05:11N 53°05' E 002°08'0 0.0
2015-Aug-04 04:33N 53°05' E 002°08'0 0.0
2015-Aug-04 03:33N 53°05' E 002°08'0 0.1
2015-Aug-04 02:33N 53°05' E 002°08'0 0.0
2015-Aug-04 01:33N 53°05' E 002°08'0 0.0
2015-Aug-04 00:33N 53°05' E 002°08'0 0.1
2015-Aug-03 23:33N 53°05' E 002°08'0 0.0
2015-Aug-03 22:33N 53°05' E 002°08'0 0.0
2015-Aug-03 21:33N 53°05' E 002°08'3 2.8
2015-Aug-03 20:33N 53°04' E 002°11'2 0.4
2015-Aug-03 15:32N 53°02' E 002°11'5 5.0
2015-Aug-03 14:33N 53°05' E 002°06'2 1.7
2015-Aug-03 13:34N 53°07' E 002°04'0 0.0
2015-Aug-03 12:33N 53°06' E 002°04'0 0.0
2015-Aug-03 11:33N 53°07' E 002°04'0 0.0
2015-Aug-03 10:32N 53°07' E 002°04'0 0.1
2015-Aug-03 09:33N 53°06' E 002°04'0 0.0
2015-Aug-03 08:33N 53°06' E 002°04'0 0.1
2015-Aug-03 07:33N 53°06' E 002°04'0 0.0
2015-Aug-03 06:33N 53°06' E 002°04'0 0.0
2015-Aug-03 05:33N 53°06' E 002°04'0 0.1
2015-Aug-03 04:33N 53°06' E 002°04'0 0.0
2015-Aug-03 03:33N 53°06' E 002°04'0 0.0
2015-Aug-03 02:33N 53°06' E 002°04'0 0.1
2015-Aug-03 01:33N 53°06' E 002°04'0 0.0
2015-Aug-02 23:33N 53°06' E 002°04'0 0.0
2015-Aug-02 22:33N 53°06' E 002°04'0 0.0
2015-Aug-02 21:33N 53°06' E 002°04'0 0.0
2015-Aug-02 20:33N 53°06' E 002°04'0 0.0
2015-Aug-02 19:33N 53°06' E 002°04'0 0.0
2015-Aug-02 18:33N 53°06' E 002°04'0 0.1
2015-Aug-02 17:33N 53°06' E 002°04'0 0.2
2015-Aug-02 16:33N 53°06' E 002°04'0 0.0
2015-Aug-02 15:33N 53°06' E 002°04'0 0.0
2015-Aug-02 14:33N 53°06' E 002°04'0 0.0
2015-Aug-02 13:33N 53°06' E 002°04'3 2.9
2015-Aug-02 12:33N 53°05' E 002°08'1 1.4
2015-Aug-02 11:33N 53°04' E 002°10'1 0.9
2015-Aug-02 10:33N 53°04' E 002°11'0 0.4
2015-Aug-02 09:33N 53°03' E 002°11'0 0.1
2015-Aug-02 08:33N 53°03' E 002°11'0 0.0
2015-Aug-02 07:33N 53°03' E 002°11'0 0.0
2015-Aug-02 06:33N 53°03' E 002°11'0 0.0
2015-Aug-02 05:33N 53°03' E 002°11'0 0.1
2015-Aug-02 04:33N 53°03' E 002°11'0 0.0
2015-Aug-02 01:33N 53°03' E 002°11'0 0.0
2015-Aug-02 00:33N 53°03' E 002°11'0 0.0
2015-Aug-01 23:32N 53°03' E 002°11'0 0.0
2015-Aug-01 21:28N 53°03' E 002°11'0 0.0
2015-Aug-01 20:33N 53°03' E 002°11'0 0.0
2015-Aug-01 19:33N 53°03' E 002°11'0 0.0
2015-Aug-01 18:33N 53°03' E 002°11'0 0.0
2015-Aug-01 17:33N 53°03' E 002°11'0 0.1
2015-Aug-01 16:24N 53°03' E 002°11'0 0.0
2015-Aug-01 15:33N 53°03' E 002°11'0 0.0
2015-Aug-01 14:33N 53°03' E 002°11'0 0.0
2015-Aug-01 13:33N 53°03' E 002°11'0 0.0
2015-Aug-01 09:33N 53°03' E 002°11'0 0.0
2015-Aug-01 08:33N 53°03' E 002°11'0 0.1
2015-Aug-01 04:04N 53°03' E 002°11'0 0.0
2015-Aug-01 03:33N 53°03' E 002°11'0 0.0
2015-Aug-01 02:27N 53°03' E 002°11'0 0.0
2015-Aug-01 01:33N 53°03' E 002°11'0 0.0
2015-Jul-31 20:33N 53°03' E 002°11'0 0.0
2015-Jul-31 19:27N 53°03' E 002°11'0 0.0
2015-Jul-31 03:29N 53°03' E 002°11'0 0.0
2015-Jul-30 18:15N 53°03' E 002°11'0 0.0
2015-Jul-30 08:11N 53°03' E 002°11'0 0.2
2015-Jul-30 07:31N 53°03' E 002°11'0 0.0
2015-Jul-30 06:33N 53°03' E 002°11'0 0.0
2015-Jul-30 05:33N 53°03' E 002°11'0 0.1
2015-Jul-30 00:33N 53°03' E 002°11'2 1.7
2015-Jul-29 23:33N 53°01' E 002°13'23 6.9
2015-Jul-29 20:11N 52°38' E 002°07'5 7.5
2015-Jul-29 19:33N 52°36' E 002°01'8 7.7
2015-Jul-29 18:34N 52°33' E 001°49'3 3.4
2015-Jul-29 17:33N 52°35' E 001°44'0 0.0
2015-Jul-29 16:33N 52°35' E 001°44'0 0.0
2015-Jul-29 15:33N 52°35' E 001°44'0 0.0
2015-Jul-29 14:33N 52°35' E 001°44'0 0.0
2015-Jul-29 13:33N 52°35' E 001°44'0 0.0
2015-Jul-29 12:33N 52°35' E 001°44'0 0.0
2015-Jul-29 11:30N 52°35' E 001°44'0 0.0
2015-Jul-29 10:33N 52°35' E 001°44'0 0.0
2015-Jul-29 09:33N 52°35' E 001°44'0 0.0
2015-Jul-29 08:33N 52°35' E 001°44'0 0.0
2015-Jul-29 07:33N 52°35' E 001°44'0 0.1
2015-Jul-29 06:33N 52°35' E 001°44'4 4.0
2015-Jul-29 05:33N 52°33' E 001°50'7 7.2
2015-Jul-29 04:33N 52°36' E 002°00'28 1.6
2015-Jul-28 10:32N 53°03' E 002°10'1 1.5
2015-Jul-28 09:33N 53°05' E 002°11'0 0.0
2015-Jul-28 08:33N 53°05' E 002°11'0 0.0
2015-Jul-28 07:33N 53°05' E 002°11'0 0.0
2015-Jul-28 06:32N 53°05' E 002°11'0 0.0
2015-Jul-28 05:33N 53°05' E 002°11'0 0.0
2015-Jul-28 04:33N 53°05' E 002°11'0 0.1
2015-Jul-28 03:33N 53°05' E 002°11'0 0.0
2015-Jul-28 02:33N 53°05' E 002°11'0 0.0
2015-Jul-28 01:33N 53°05' E 002°11'0 0.0
2015-Jul-28 00:33N 53°05' E 002°11'0 0.0
2015-Jul-27 23:33N 53°05' E 002°11'0 0.0
2015-Jul-27 22:33N 53°05' E 002°11'0 0.0
2015-Jul-27 21:33N 53°05' E 002°11'0 0.0
2015-Jul-27 20:33N 53°05' E 002°11'0 0.0
2015-Jul-27 19:33N 53°05' E 002°11'0 0.0
2015-Jul-27 18:33N 53°05' E 002°11'0 0.0
2015-Jul-27 17:33N 53°05' E 002°11'0 0.0
2015-Jul-27 16:33N 53°05' E 002°11'0 0.1
2015-Jul-27 15:33N 53°05' E 002°11'0 0.1
2015-Jul-27 14:33N 53°05' E 002°11'0 0.0
2015-Jul-27 13:33N 53°05' E 002°11'0 0.0
2015-Jul-27 12:33N 53°05' E 002°11'0 0.0
2015-Jul-27 11:33N 53°05' E 002°11'0 0.0
2015-Jul-27 10:33N 53°05' E 002°11'0 0.0
2015-Jul-27 09:21N 53°05' E 002°11'0 0.0
2015-Jul-27 08:33N 53°05' E 002°11'0 0.0
2015-Jul-27 07:33N 53°05' E 002°11'0 0.0
2015-Jul-27 06:33N 53°05' E 002°11'0 0.0
2015-Jul-27 05:33N 53°05' E 002°11'0 0.0
2015-Jul-27 04:33N 53°05' E 002°11'0 0.0
2015-Jul-27 03:33N 53°05' E 002°11'0 0.0
2015-Jul-27 02:33N 53°05' E 002°11'0 0.0
2015-Jul-27 01:33N 53°05' E 002°11'0 0.0
2015-Jul-27 00:33N 53°05' E 002°11'0 0.0
2015-Jul-26 23:31N 53°05' E 002°11'0 0.0
2015-Jul-26 20:22N 53°05' E 002°11'0 0.0
2015-Jul-26 19:32N 53°05' E 002°11'0 0.0
2015-Jul-26 18:31N 53°05' E 002°11'0 0.0
2015-Jul-26 17:31N 53°05' E 002°11'0 0.0
2015-Jul-26 16:33N 53°05' E 002°11'0 0.0
2015-Jul-26 15:33N 53°05' E 002°11'0 0.0
2015-Jul-26 14:33N 53°05' E 002°11'0 0.0
2015-Jul-26 13:33N 53°05' E 002°11'0 0.0
2015-Jul-26 12:33N 53°05' E 002°11'0 0.0
2015-Jul-26 11:33N 53°05' E 002°11'0 0.0
2015-Jul-26 10:33N 53°05' E 002°11'  

Dump ship's entire track history